Terminal Aerodrome Forecast
Issued by NWS Sterling, VA

Current Version | Previous Version | Text Only | Print | Product List | Glossary Off
Versions: 1 2 3 4 5 6 7 8 9 10 11 12 13 14

123
FTUS41 KLWX 182338
TAFMRB
TAF
KMRB 182338Z 1900/1924 28008KT P6SM SKC
     FM190400 25004KT P6SM SKC
     FM191500 23008KT P6SM FEW200
     FM192300 24004KT P6SM FEW250=

USA.gov is the U.S. government's official web portal to all federal, state and local government web resources and services.